createdAt,value
2019-03-29T00:02:18.801Z,12.07
2019-03-29T00:04:47.741Z,10.78
2019-03-29T00:07:16.845Z,10.90
2019-03-29T00:09:45.408Z,10.40
2019-03-29T00:12:15.529Z,10.20
2019-03-29T00:14:44.205Z,9.85
2019-03-29T00:17:12.527Z,10.35
2019-03-29T00:19:41.080Z,10.10
2019-03-29T00:22:09.340Z,9.28
2019-03-29T00:24:37.702Z,9.50
2019-03-29T00:27:06.590Z,9.50
2019-03-29T00:29:35.037Z,9.60
2019-03-29T00:32:03.309Z,9.53
2019-03-29T00:34:31.785Z,9.20
2019-03-29T00:37:00.068Z,8.93
2019-03-29T00:39:28.623Z,9.43
2019-03-29T00:42:00.817Z,9.43
2019-03-29T00:44:41.871Z,8.23
2019-03-29T00:47:18.143Z,8.90
2019-03-29T00:49:57.562Z,9.75
2019-03-29T00:52:37.529Z,8.80
2019-03-29T00:55:17.845Z,8.75
2019-03-29T00:57:46.218Z,8.83
2019-03-29T01:00:15.457Z,8.50
2019-03-29T01:02:44.940Z,8.18
2019-03-29T01:05:14.426Z,8.40
2019-03-29T01:07:42.920Z,7.80
2019-03-29T01:10:11.242Z,8.25
2019-03-29T01:12:39.465Z,8.10
2019-03-29T01:15:08.958Z,8.50
2019-03-29T01:17:37.706Z,8.40
2019-03-29T01:20:06.257Z,8.00
2019-03-29T01:22:34.493Z,8.23
2019-03-29T01:25:03.040Z,7.75
2019-03-29T01:27:31.632Z,7.72
2019-03-29T01:30:00.466Z,8.55
2019-03-29T01:32:29.312Z,8.50
2019-03-29T01:34:58.306Z,7.95
2019-03-29T01:37:26.896Z,7.90
2019-03-29T01:39:55.212Z,8.13
2019-03-29T01:42:23.458Z,8.08
2019-03-29T01:44:51.829Z,7.83
2019-03-29T01:47:20.154Z,8.60
2019-03-29T01:49:48.400Z,8.30
2019-03-29T01:52:16.943Z,8.73
2019-03-29T01:54:46.303Z,8.38
2019-03-29T01:57:14.575Z,8.38
2019-03-29T01:59:43.596Z,8.33
2019-03-29T02:02:12.119Z,8.53
2019-03-29T02:04:40.679Z,7.90
2019-03-29T02:07:09.197Z,8.78
2019-03-29T02:09:38.003Z,8.30
2019-03-29T02:12:07.104Z,8.58
2019-03-29T02:14:35.957Z,8.90
2019-03-29T02:17:05.668Z,8.53
2019-03-29T02:19:34.254Z,8.40
2019-03-29T02:22:02.579Z,9.10
2019-03-29T02:24:30.792Z,8.77
2019-03-29T02:27:00.214Z,8.30
2019-03-29T02:29:29.714Z,8.40
2019-03-29T02:31:58.023Z,8.80
2019-03-29T02:34:26.889Z,8.30
2019-03-29T02:36:55.185Z,8.30
2019-03-29T02:39:23.558Z,8.60
2019-03-29T02:41:52.129Z,8.70
2019-03-29T02:44:21.319Z,9.30
2019-03-29T02:46:49.904Z,9.40
2019-03-29T02:49:18.807Z,9.20
2019-03-29T02:51:47.340Z,9.60
2019-03-29T02:54:16.176Z,9.80
2019-03-29T02:56:45.046Z,10.25
2019-03-29T02:59:13.567Z,10.20
2019-03-29T03:01:41.923Z,10.20
2019-03-29T03:04:10.807Z,10.97
2019-03-29T03:06:39.425Z,10.80
2019-03-29T03:09:13.834Z,11.65
2019-03-29T03:11:38.577Z,11.53
2019-03-29T03:14:06.957Z,12.40
2019-03-29T03:16:35.693Z,12.00
2019-03-29T03:19:04.281Z,12.35
2019-03-29T03:21:33.163Z,12.23
2019-03-29T03:24:02.111Z,11.93
2019-03-29T03:26:30.443Z,12.10
2019-03-29T03:28:58.995Z,11.90
2019-03-29T03:31:29.482Z,11.33
2019-03-29T03:33:58.010Z,11.70
2019-03-29T03:36:26.253Z,11.50
2019-03-29T03:38:55.034Z,10.63
2019-03-29T03:41:23.308Z,10.58
2019-03-29T03:43:51.918Z,10.95
2019-03-29T03:46:20.529Z,10.32
2019-03-29T03:48:48.869Z,11.30
2019-03-29T03:51:17.701Z,10.63
2019-03-29T03:53:46.492Z,11.10
2019-03-29T03:56:15.975Z,11.70
2019-03-29T03:58:44.805Z,11.30
2019-03-29T04:01:13.367Z,10.80
2019-03-29T04:03:41.629Z,11.12
2019-03-29T04:06:09.919Z,10.80
2019-03-29T04:08:38.570Z,10.30
2019-03-29T04:11:06.940Z,11.40
2019-03-29T04:13:35.470Z,10.28
2019-03-29T04:16:03.799Z,10.05
2019-03-29T04:18:31.989Z,10.20
2019-03-29T04:21:01.344Z,10.40
2019-03-29T04:23:29.923Z,10.40
2019-03-29T04:25:58.578Z,10.23
2019-03-29T04:28:26.840Z,10.40
2019-03-29T04:30:55.364Z,10.10
2019-03-29T04:33:23.657Z,10.00
2019-03-29T04:35:52.489Z,10.60
2019-03-29T04:38:20.692Z,9.95
2019-03-29T04:40:49.357Z,9.98
2019-03-29T04:43:17.591Z,10.00
2019-03-29T04:45:46.143Z,10.30
2019-03-29T04:48:14.365Z,10.20
2019-03-29T04:50:43.205Z,9.70
2019-03-29T04:53:11.512Z,9.60
2019-03-29T04:55:40.379Z,10.50
2019-03-29T04:58:08.912Z,10.72
2019-03-29T05:00:37.441Z,10.80
2019-03-29T05:03:05.669Z,10.55
2019-03-29T05:05:34.631Z,10.82
2019-03-29T05:08:03.216Z,11.10
2019-03-29T05:10:31.410Z,10.03
2019-03-29T05:13:00.383Z,10.58
2019-03-29T05:15:28.627Z,10.38
2019-03-29T05:17:57.218Z,12.00
2019-03-29T05:20:26.225Z,10.80
2019-03-29T05:22:55.005Z,10.65
2019-03-29T05:25:23.537Z,11.25
2019-03-29T05:27:52.384Z,12.00
2019-03-29T05:30:21.320Z,12.90
2019-03-29T05:32:49.584Z,12.43
2019-03-29T05:35:17.854Z,15.78
2019-03-29T05:37:46.127Z,13.80
2019-03-29T05:40:14.354Z,11.90
2019-03-29T05:42:42.869Z,11.90
2019-03-29T05:45:11.437Z,12.03
2019-03-29T05:47:40.048Z,13.60
2019-03-29T05:50:08.609Z,13.03
2019-03-29T05:52:36.835Z,12.70
2019-03-29T05:55:05.394Z,14.10
2019-03-29T05:57:33.958Z,14.23
2019-03-29T06:00:02.230Z,13.78
2019-03-29T06:02:30.812Z,14.30
2019-03-29T06:04:59.406Z,14.40
2019-03-29T06:07:27.981Z,13.95
2019-03-29T06:09:56.677Z,17.37
2019-03-29T06:12:24.948Z,15.68
2019-03-29T06:14:53.193Z,22.27
2019-03-29T06:17:21.491Z,22.07
2019-03-29T06:19:50.079Z,22.40
2019-03-29T06:22:18.404Z,16.97
2019-03-29T06:24:46.674Z,18.83
2019-03-29T06:27:15.347Z,14.47
2019-03-29T06:29:44.042Z,18.77
2019-03-29T06:32:12.272Z,16.25
2019-03-29T06:34:40.544Z,15.90
2019-03-29T06:37:09.188Z,15.50
2019-03-29T06:39:38.135Z,14.65
2019-03-29T06:42:06.491Z,16.77
2019-03-29T06:44:34.994Z,13.72
2019-03-29T06:47:03.590Z,14.00
2019-03-29T06:49:32.181Z,15.75
2019-03-29T06:52:01.064Z,17.80
2019-03-29T06:54:29.954Z,14.38
2019-03-29T06:56:58.541Z,16.00
2019-03-29T06:59:27.121Z,14.30
2019-03-29T07:01:55.726Z,14.90
2019-03-29T07:04:23.968Z,16.50
2019-03-29T07:06:52.547Z,13.50
2019-03-29T07:09:21.463Z,12.95
2019-03-29T07:11:50.247Z,13.83
2019-03-29T07:14:18.836Z,13.55
2019-03-29T07:16:47.725Z,13.68
2019-03-29T07:19:16.620Z,13.45
2019-03-29T07:21:45.485Z,13.40
2019-03-29T07:24:14.396Z,13.70
2019-03-29T07:26:43.045Z,13.72
2019-03-29T07:29:11.256Z,13.70
2019-03-29T07:31:41.433Z,13.00
2019-03-29T07:34:09.718Z,13.08
2019-03-29T07:36:37.936Z,12.75
2019-03-29T07:39:07.096Z,12.75
2019-03-29T07:41:35.718Z,12.50
2019-03-29T07:44:04.001Z,12.43
2019-03-29T07:46:32.291Z,12.37
2019-03-29T07:49:00.609Z,12.82
2019-03-29T07:51:28.854Z,13.07
2019-03-29T07:53:57.414Z,12.23
2019-03-29T07:56:25.997Z,12.20
2019-03-29T07:58:54.299Z,12.33
2019-03-29T08:01:22.852Z,12.00
2019-03-29T08:03:51.423Z,11.70
2019-03-29T08:06:20.849Z,11.83
2019-03-29T08:08:49.097Z,11.03
2019-03-29T08:11:26.079Z,11.80
2019-03-29T08:13:48.298Z,11.00
2019-03-29T08:16:17.421Z,10.15
2019-03-29T08:18:45.678Z,9.95
2019-03-29T08:21:14.216Z,9.20
2019-03-29T08:23:43.062Z,9.53
2019-03-29T08:26:11.454Z,9.10
2019-03-29T08:28:39.766Z,8.83
2019-03-29T08:31:08.314Z,8.60
2019-03-29T08:33:37.214Z,8.50
2019-03-29T08:36:06.082Z,8.60
2019-03-29T08:38:34.914Z,8.20
2019-03-29T08:41:03.290Z,8.30
2019-03-29T08:43:32.271Z,8.00
2019-03-29T08:46:02.013Z,7.58
2019-03-29T08:48:31.395Z,7.65
2019-03-29T08:51:00.819Z,7.35
2019-03-29T08:53:30.432Z,6.65
2019-03-29T08:55:59.701Z,6.80
2019-03-29T08:58:29.469Z,6.47
2019-03-29T09:00:59.353Z,6.35
2019-03-29T09:03:28.755Z,5.70
2019-03-29T09:05:57.406Z,4.80
2019-03-29T09:08:26.005Z,4.90
2019-03-29T09:10:54.208Z,4.60
2019-03-29T09:13:23.062Z,4.30
2019-03-29T09:15:51.636Z,3.90
2019-03-29T09:18:19.924Z,4.37
2019-03-29T09:20:48.817Z,4.60
2019-03-29T09:23:17.070Z,4.53
2019-03-29T09:25:45.612Z,5.25
2019-03-29T09:28:14.032Z,4.95
2019-03-29T09:30:42.232Z,5.90
2019-03-29T09:33:10.457Z,6.00
2019-03-29T09:35:38.723Z,6.22
2019-03-29T09:38:07.250Z,6.05
2019-03-29T09:40:35.812Z,6.70
2019-03-29T09:43:08.136Z,6.93
2019-03-29T09:45:34.417Z,7.10
2019-03-29T09:48:02.993Z,7.08
2019-03-29T09:50:31.602Z,7.58
2019-03-29T09:53:01.452Z,8.30
2019-03-29T09:55:30.014Z,8.23
2019-03-29T09:57:58.598Z,8.40
2019-03-29T10:00:27.177Z,8.68
2019-03-29T10:02:55.762Z,8.98
2019-03-29T10:05:24.404Z,8.73
2019-03-29T10:07:52.689Z,9.50
2019-03-29T10:10:21.040Z,10.50
2019-03-29T10:12:49.549Z,10.20
2019-03-29T10:15:18.378Z,9.93
2019-03-29T10:17:47.459Z,10.70
2019-03-29T10:20:16.021Z,10.40
2019-03-29T10:22:44.332Z,10.87
2019-03-29T10:25:19.745Z,11.00
2019-03-29T10:27:43.183Z,11.10
2019-03-29T10:30:11.632Z,11.15
2019-03-29T10:32:40.461Z,10.65
2019-03-29T10:35:08.994Z,11.78
2019-03-29T10:37:37.297Z,11.00
2019-03-29T10:40:05.706Z,11.20
2019-03-29T10:42:34.039Z,11.78
2019-03-29T10:45:02.948Z,11.15
2019-03-29T10:47:43.217Z,11.15
2019-03-29T10:50:02.324Z,11.57
2019-03-29T10:52:30.565Z,11.25
2019-03-29T10:54:59.092Z,11.38
2019-03-29T10:57:28.217Z,11.30
2019-03-29T10:59:56.820Z,10.50
2019-03-29T11:02:25.370Z,11.50
2019-03-29T11:04:54.365Z,10.80
2019-03-29T11:07:22.626Z,10.78
2019-03-29T11:09:50.877Z,10.47
2019-03-29T11:12:19.120Z,10.90
2019-03-29T11:14:47.647Z,10.60
2019-03-29T11:17:16.317Z,10.05
2019-03-29T11:19:44.938Z,9.97
2019-03-29T11:22:13.204Z,10.25
2019-03-29T11:24:42.113Z,10.03
2019-03-29T11:27:10.651Z,10.80
2019-03-29T11:29:39.262Z,10.80
2019-03-29T11:32:07.970Z,10.90
2019-03-29T11:34:36.173Z,10.70
2019-03-29T11:37:04.450Z,10.95
2019-03-29T11:39:32.711Z,10.50
2019-03-29T11:42:03.530Z,10.43
2019-03-29T11:44:31.268Z,10.43
2019-03-29T11:47:00.363Z,10.37
2019-03-29T11:49:29.493Z,10.60
2019-03-29T11:51:57.871Z,9.98
2019-03-29T11:54:26.114Z,57.20
2019-03-29T11:56:54.374Z,36.50
2019-03-29T11:59:22.585Z,46.05
2019-03-29T12:01:51.485Z,21.73
2019-03-29T12:04:19.975Z,22.83
2019-03-29T12:06:48.863Z,10.95
2019-03-29T12:09:17.557Z,11.10
2019-03-29T12:11:46.118Z,10.20
2019-03-29T12:14:14.724Z,10.82
2019-03-29T12:16:42.960Z,10.63
2019-03-29T12:19:11.549Z,9.60
2019-03-29T12:21:40.170Z,10.48
2019-03-29T12:24:08.492Z,10.90
2019-03-29T12:26:37.089Z,10.40
2019-03-29T12:29:05.719Z,9.70
2019-03-29T12:31:34.047Z,10.60
2019-03-29T12:34:02.673Z,9.47
2019-03-29T12:36:31.336Z,10.85
2019-03-29T12:38:59.951Z,10.10
2019-03-29T12:41:28.222Z,9.88
2019-03-29T12:43:56.545Z,9.80
2019-03-29T12:46:26.020Z,9.48
2019-03-29T12:48:54.446Z,10.58
2019-03-29T12:51:22.769Z,9.40
2019-03-29T12:53:51.349Z,9.83
2019-03-29T12:56:19.932Z,9.40
2019-03-29T12:58:48.165Z,9.60
2019-03-29T13:01:16.447Z,9.50
2019-03-29T13:03:44.960Z,9.03
2019-03-29T13:06:13.630Z,9.80
2019-03-29T13:08:42.565Z,9.70
2019-03-29T13:11:11.329Z,10.20
2019-03-29T13:13:39.613Z,9.35
2019-03-29T13:16:07.949Z,10.15
2019-03-29T13:18:36.221Z,10.80
2019-03-29T13:21:04.696Z,9.93
2019-03-29T13:23:32.936Z,9.73
2019-03-29T13:26:01.594Z,10.20
2019-03-29T13:28:30.088Z,9.68
2019-03-29T13:30:58.773Z,9.40
2019-03-29T13:33:27.566Z,9.88
2019-03-29T13:35:55.896Z,9.23
2019-03-29T13:38:24.518Z,9.50
2019-03-29T13:40:52.869Z,10.00
2019-03-29T13:43:21.146Z,9.20
2019-03-29T13:45:49.423Z,9.20
2019-03-29T13:48:18.107Z,9.63
2019-03-29T13:50:46.344Z,9.68
2019-03-29T13:53:15.640Z,9.43
2019-03-29T13:55:44.206Z,8.88
2019-03-29T13:58:12.449Z,9.20
2019-03-29T14:00:41.432Z,9.90
2019-03-29T14:03:09.821Z,9.73
2019-03-29T14:05:38.337Z,10.65
2019-03-29T14:08:06.610Z,11.80
2019-03-29T14:10:34.874Z,11.30
2019-03-29T14:13:03.270Z,10.00
2019-03-29T14:15:31.929Z,10.55
2019-03-29T14:18:00.829Z,9.73
2019-03-29T14:20:33.022Z,10.93
2019-03-29T14:23:01.792Z,10.53
2019-03-29T14:25:30.132Z,13.08
2019-03-29T14:27:58.978Z,9.80
2019-03-29T14:30:27.593Z,9.78
2019-03-29T14:32:56.227Z,10.18
2019-03-29T14:35:25.203Z,11.33
2019-03-29T14:37:53.819Z,10.47
2019-03-29T14:40:22.299Z,10.65
2019-03-29T14:42:50.796Z,11.00
2019-03-29T14:45:18.962Z,10.32
2019-03-29T14:47:47.202Z,10.90
2019-03-29T14:50:16.341Z,10.65
2019-03-29T14:52:44.589Z,10.10
2019-03-29T14:55:13.364Z,11.20
2019-03-29T14:57:41.654Z,12.73
2019-03-29T15:00:11.314Z,11.70
2019-03-29T15:02:39.566Z,15.70
2019-03-29T15:05:09.385Z,11.15
2019-03-29T15:07:39.347Z,11.80
2019-03-29T15:10:10.465Z,11.95
2019-03-29T15:12:39.362Z,11.33
2019-03-29T15:15:07.602Z,10.80
2019-03-29T15:17:36.300Z,10.15
2019-03-29T15:20:05.273Z,9.35
2019-03-29T15:22:33.490Z,10.53
2019-03-29T15:25:01.794Z,9.58
2019-03-29T15:27:30.009Z,9.90
2019-03-29T15:29:58.620Z,9.93
2019-03-29T15:32:26.925Z,11.10
2019-03-29T15:34:55.592Z,10.63
2019-03-29T15:37:24.189Z,10.80
2019-03-29T15:39:53.132Z,10.25
2019-03-29T15:42:21.719Z,9.77
2019-03-29T15:44:50.329Z,9.20
2019-03-29T15:47:18.953Z,9.80
2019-03-29T15:49:55.818Z,10.07
2019-03-29T15:52:17.589Z,9.55
2019-03-29T15:54:45.889Z,9.80
2019-03-29T15:57:14.212Z,9.50
2019-03-29T15:59:42.406Z,10.03
2019-03-29T16:02:10.728Z,9.75
2019-03-29T16:04:39.299Z,9.75
2019-03-29T16:07:07.562Z,10.18
2019-03-29T16:09:35.751Z,9.80
2019-03-29T16:12:04.295Z,9.80
2019-03-29T16:14:32.715Z,10.00
2019-03-29T16:17:01.341Z,10.15
2019-03-29T16:19:30.135Z,10.95
2019-03-29T16:21:59.483Z,11.43
2019-03-29T16:24:28.225Z,9.53
2019-03-29T16:26:56.556Z,9.68
2019-03-29T16:29:25.031Z,10.05
2019-03-29T16:31:53.756Z,9.40
2019-03-29T16:34:22.005Z,9.30
2019-03-29T16:36:50.258Z,9.10
2019-03-29T16:39:18.853Z,9.50
2019-03-29T16:41:47.077Z,9.60
2019-03-29T16:44:15.921Z,19.95
2019-03-29T16:46:44.325Z,12.20
2019-03-29T16:49:12.861Z,16.15
2019-03-29T16:51:41.105Z,14.90
2019-03-29T16:54:09.628Z,12.67
2019-03-29T16:56:38.331Z,9.25
2019-03-29T16:59:06.845Z,9.28
2019-03-29T17:01:35.093Z,12.60
2019-03-29T17:04:03.641Z,10.55
2019-03-29T17:06:32.556Z,12.13
2019-03-29T17:09:00.756Z,10.68
2019-03-29T17:11:29.062Z,8.70
2019-03-29T17:13:57.672Z,8.90
2019-03-29T17:16:30.662Z,9.40
2019-03-29T17:18:56.436Z,10.20
2019-03-29T17:21:24.656Z,9.18
2019-03-29T17:24:06.474Z,8.20
2019-03-29T17:26:35.008Z,9.13
2019-03-29T17:29:04.370Z,9.18
2019-03-29T17:31:32.564Z,9.20
2019-03-29T17:34:01.421Z,8.93
2019-03-29T17:36:30.497Z,8.90
2019-03-29T17:38:58.727Z,8.60
2019-03-29T17:41:27.589Z,8.47
2019-03-29T17:43:56.688Z,8.03
2019-03-29T17:46:25.781Z,7.75
2019-03-29T17:48:54.101Z,7.60
2019-03-29T17:51:22.344Z,8.23
2019-03-29T17:53:51.164Z,7.20
2019-03-29T17:56:19.701Z,7.30
2019-03-29T17:58:48.989Z,7.10
2019-03-29T18:01:17.230Z,6.90
2019-03-29T18:03:45.429Z,7.10
2019-03-29T18:06:13.786Z,7.53
2019-03-29T18:08:42.036Z,7.75
2019-03-29T18:11:10.591Z,7.53
2019-03-29T18:13:38.814Z,7.90
2019-03-29T18:16:07.374Z,7.53
2019-03-29T18:18:35.586Z,7.80
2019-03-29T18:21:04.102Z,8.10
2019-03-29T18:23:32.297Z,9.23
2019-03-29T18:26:00.554Z,8.40
2019-03-29T18:28:28.893Z,8.90
2019-03-29T18:30:58.070Z,8.40
2019-03-29T18:33:26.417Z,8.80
2019-03-29T18:35:55.008Z,9.08
2019-03-29T18:38:23.988Z,9.88
2019-03-29T18:40:52.507Z,12.60
2019-03-29T18:43:20.756Z,13.70
2019-03-29T18:45:48.986Z,10.50
2019-03-29T18:48:17.478Z,10.47
2019-03-29T18:50:46.001Z,10.10
2019-03-29T18:53:14.273Z,9.80
2019-03-29T18:55:42.752Z,10.30
2019-03-29T18:58:11.275Z,10.45
2019-03-29T19:00:39.526Z,10.82
2019-03-29T19:03:07.761Z,10.40
2019-03-29T19:05:36.237Z,10.40
2019-03-29T19:08:04.481Z,10.05
2019-03-29T19:10:32.999Z,10.40
2019-03-29T19:13:01.502Z,9.53
2019-03-29T19:15:30.004Z,12.15
2019-03-29T19:17:58.512Z,9.73
2019-03-29T19:20:28.271Z,9.78
2019-03-29T19:22:56.983Z,17.25
2019-03-29T19:25:25.536Z,14.47
2019-03-29T19:27:53.935Z,11.95
2019-03-29T19:30:23.245Z,22.15
2019-03-29T19:32:51.493Z,20.60
2019-03-29T19:35:20.272Z,20.45
2019-03-29T19:37:48.584Z,16.70
2019-03-29T19:40:16.913Z,13.23
2019-03-29T19:42:45.389Z,9.18
2019-03-29T19:45:14.220Z,9.50
2019-03-29T19:47:42.445Z,9.88
2019-03-29T19:50:11.817Z,10.30
2019-03-29T19:52:40.394Z,10.32
2019-03-29T19:55:08.808Z,10.68
2019-03-29T19:57:37.359Z,10.13
2019-03-29T20:00:07.014Z,11.43
2019-03-29T20:02:35.596Z,11.28
2019-03-29T20:05:03.890Z,11.73
2019-03-29T20:07:32.778Z,12.10
2019-03-29T20:10:01.618Z,11.20
2019-03-29T20:12:29.851Z,11.35
2019-03-29T20:14:58.433Z,11.53
2019-03-29T20:17:27.625Z,11.75
2019-03-29T20:19:56.562Z,12.23
2019-03-29T20:22:25.095Z,12.13
2019-03-29T20:24:53.934Z,12.00
2019-03-29T20:27:22.553Z,12.60
2019-03-29T20:29:51.513Z,64.47
2019-03-29T20:32:20.573Z,13.90
2019-03-29T20:34:49.156Z,11.43
2019-03-29T20:37:18.307Z,11.83
2019-03-29T20:39:46.496Z,11.93
2019-03-29T20:42:14.755Z,12.35
2019-03-29T20:44:42.981Z,11.73
2019-03-29T20:47:11.237Z,12.68
2019-03-29T20:49:39.758Z,12.00
2019-03-29T20:52:08.348Z,11.90
2019-03-29T20:54:36.897Z,12.50
2019-03-29T20:57:05.159Z,14.85
2019-03-29T20:59:33.728Z,13.30
2019-03-29T21:02:02.291Z,13.50
2019-03-29T21:04:30.864Z,13.75
2019-03-29T21:06:59.120Z,13.00
2019-03-29T21:09:27.677Z,13.20
2019-03-29T21:11:55.892Z,14.73
2019-03-29T21:14:24.774Z,14.90
2019-03-29T21:16:53.462Z,14.25
2019-03-29T21:19:21.968Z,16.90
2019-03-29T21:21:50.542Z,17.30
2019-03-29T21:24:19.029Z,17.40
2019-03-29T21:26:47.608Z,19.05
2019-03-29T21:29:16.400Z,19.10
2019-03-29T21:31:44.665Z,19.07
2019-03-29T21:34:13.355Z,25.40
2019-03-29T21:36:41.960Z,21.45
2019-03-29T21:39:12.693Z,18.60
2019-03-29T21:41:40.989Z,17.80
2019-03-29T21:44:10.674Z,18.23
2019-03-29T21:46:39.528Z,18.12
2019-03-29T21:49:07.776Z,17.47
2019-03-29T21:51:36.055Z,16.85
2019-03-29T21:54:04.581Z,17.25
2019-03-29T21:56:33.187Z,16.67
2019-03-29T21:59:01.642Z,16.37
2019-03-29T22:01:29.910Z,16.27
2019-03-29T22:03:58.494Z,15.90
2019-03-29T22:06:27.096Z,16.23
2019-03-29T22:08:55.361Z,16.93
2019-03-29T22:11:23.924Z,15.88
2019-03-29T22:13:53.341Z,15.15
2019-03-29T22:16:21.860Z,15.90
2019-03-29T22:18:50.246Z,16.10
2019-03-29T22:21:18.768Z,17.17
2019-03-29T22:23:47.812Z,16.25
2019-03-29T22:26:16.077Z,16.05
2019-03-29T22:28:44.619Z,16.37
2019-03-29T22:31:12.861Z,16.90
2019-03-29T22:33:41.165Z,18.82
2019-03-29T22:36:09.424Z,16.62
2019-03-29T22:38:37.882Z,17.42
2019-03-29T22:41:06.124Z,17.10
2019-03-29T22:43:34.888Z,17.50
2019-03-29T22:46:03.518Z,16.90
2019-03-29T22:48:32.012Z,15.95
2019-03-29T22:51:00.577Z,17.32
2019-03-29T22:53:29.161Z,17.30
2019-03-29T22:55:57.413Z,17.98
2019-03-29T22:58:28.436Z,18.50
2019-03-29T23:00:56.428Z,19.27
2019-03-29T23:03:24.962Z,19.98
2019-03-29T23:05:53.438Z,20.02
2019-03-29T23:08:22.520Z,20.00
2019-03-29T23:10:50.766Z,20.85
2019-03-29T23:13:19.296Z,19.17
2019-03-29T23:15:47.878Z,20.80
2019-03-29T23:18:16.133Z,21.50
2019-03-29T23:20:44.862Z,22.40
2019-03-29T23:23:13.114Z,21.90
2019-03-29T23:25:42.004Z,23.10
2019-03-29T23:28:10.896Z,22.42
2019-03-29T23:30:39.146Z,22.80
2019-03-29T23:33:07.416Z,21.83
2019-03-29T23:35:35.989Z,22.00
2019-03-29T23:38:04.249Z,21.75
2019-03-29T23:40:32.792Z,22.32
2019-03-29T23:43:01.364Z,22.07
2019-03-29T23:45:29.957Z,21.37
2019-03-29T23:47:58.153Z,21.80
2019-03-29T23:50:26.929Z,21.23
2019-03-29T23:52:55.209Z,21.85
2019-03-29T23:55:24.178Z,21.73
2019-03-29T23:57:52.353Z,26.27
